Time;durP1;ratioP1;P1;durP2;ratioP2;P2;SDS_P1;SDS_P2;PMS_P1;PMS_P2;Temp;Humidity;BMP_temperature;BMP_pressure;BME280_temperature;BME280_humidity;BME280_pressure;Samples;Min_cycle;Max_cycle;Signal;HPM_P1;HPM_P2
2022/11/27 00:01:19;;;;;;;19.10;7.32;;;6.40;99.90;;;;;;5021751;28;20048;-69
2022/11/27 00:03:45;;;;;;;20.90;7.82;;;6.40;99.90;;;;;;5039243;28;20091;-68
2022/11/27 00:06:13;;;;;;;20.65;7.45;;;6.40;99.90;;;;;;5015820;28;20037;-67
2022/11/27 00:08:38;;;;;;;20.85;7.55;;;6.30;99.90;;;;;;5017699;28;20038;-67
2022/11/27 00:11:10;;;;;;;19.30;8.43;;;6.30;99.90;;;;;;5027160;28;20404;-67
2022/11/27 00:13:36;;;;;;;21.35;8.13;;;6.30;99.90;;;;;;5032911;28;20041;-67
2022/11/27 00:16:02;;;;;;;18.05;8.00;;;6.30;99.90;;;;;;5028746;28;20030;-67
2022/11/27 00:18:28;;;;;;;17.02;8.38;;;6.20;99.90;;;;;;5026993;28;20042;-67
2022/11/27 00:20:54;;;;;;;21.42;7.53;;;6.20;99.90;;;;;;5034434;28;20510;-68
2022/11/27 00:23:19;;;;;;;22.30;8.43;;;6.20;99.90;;;;;;5031470;28;20559;-68
2022/11/27 00:25:52;;;;;;;20.67;8.57;;;6.20;99.90;;;;;;5026914;28;20033;-68
2022/11/27 00:28:19;;;;;;;17.80;7.95;;;6.10;99.90;;;;;;5033930;28;20034;-67
2022/11/27 00:30:44;;;;;;;17.73;8.00;;;6.10;99.90;;;;;;5033466;28;20582;-67
2022/11/27 00:33:10;;;;;;;18.50;7.68;;;6.10;99.90;;;;;;5029983;28;20076;-67
2022/11/27 00:35:38;;;;;;;20.90;7.72;;;6.10;99.90;;;;;;5023494;28;20041;-68
2022/11/27 00:38:03;;;;;;;20.00;7.75;;;6.00;99.90;;;;;;5032409;28;20147;-67
2022/11/27 00:40:29;;;;;;;17.25;7.38;;;6.00;99.90;;;;;;5029543;28;20557;-67
2022/11/27 00:42:54;;;;;;;22.77;8.20;;;6.00;99.90;;;;;;5027931;28;20087;-67
2022/11/27 00:45:20;;;;;;;16.70;8.05;;;5.90;99.90;;;;;;5014383;28;20043;-68
2022/11/27 00:47:46;;;;;;;18.58;7.30;;;5.90;99.90;;;;;;5032889;28;20108;-68
2022/11/27 00:50:11;;;;;;;16.50;7.60;;;5.90;99.90;;;;;;5027973;28;20440;-68
2022/11/27 00:52:37;;;;;;;18.33;7.78;;;5.90;99.90;;;;;;5020111;28;20044;-69
2022/11/27 00:55:03;;;;;;;21.90;7.65;;;5.90;99.90;;;;;;5014465;28;20041;-69
2022/11/27 00:57:28;;;;;;;18.48;8.18;;;5.90;99.90;;;;;;5011323;28;20045;-69
2022/11/27 00:59:54;;;;;;;20.13;8.45;;;5.90;99.90;;;;;;5029076;28;20040;-67
2022/11/27 01:02:20;;;;;;;21.60;8.57;;;5.90;99.90;;;;;;5031850;28;20030;-67
2022/11/27 01:04:47;;;;;;;18.33;7.78;;;5.90;99.90;;;;;;5032407;28;20495;-67
2022/11/27 01:07:12;;;;;;;22.48;8.38;;;5.90;99.90;;;;;;5022904;28;20080;-69
2022/11/27 01:09:38;;;;;;;19.25;7.63;;;5.90;99.90;;;;;;5013893;28;20103;-69
2022/11/27 01:12:04;;;;;;;18.23;7.80;;;5.80;99.90;;;;;;5014348;28;20539;-69
2022/11/27 01:14:30;;;;;;;15.20;7.68;;;5.80;99.90;;;;;;5009558;28;20056;-68
2022/11/27 01:16:55;;;;;;;15.90;7.65;;;5.80;99.90;;;;;;5026514;28;20037;-68
2022/11/27 01:19:21;;;;;;;18.40;8.32;;;5.70;99.90;;;;;;5031612;28;20037;-69
2022/11/27 01:21:46;;;;;;;19.33;8.02;;;5.70;99.90;;;;;;5031762;28;20163;-69
2022/11/27 01:24:14;;;;;;;14.93;7.95;;;5.70;99.90;;;;;;5005482;28;20053;-69
2022/11/27 01:26:40;;;;;;;17.45;7.90;;;5.70;99.90;;;;;;5002730;28;20038;-68
2022/11/27 01:29:06;;;;;;;18.58;7.55;;;5.70;99.90;;;;;;5013866;28;20048;-67
2022/11/27 01:31:32;;;;;;;15.90;6.78;;;5.70;99.90;;;;;;5027390;28;20404;-67
2022/11/27 01:34:07;;;;;;;22.13;8.30;;;5.70;99.90;;;;;;5015800;28;20091;-67
2022/11/27 01:36:34;;;;;;;19.88;7.35;;;5.70;99.90;;;;;;5030729;28;20048;-67
2022/11/27 01:39:00;;;;;;;18.25;8.10;;;5.60;99.90;;;;;;5015495;28;20129;-69
2022/11/27 01:41:35;;;;;;;23.65;7.63;;;5.60;99.90;;;;;;5019589;28;20124;-67
2022/11/27 01:44:22;;;;;;;18.17;8.13;;;5.60;99.90;;;;;;5013266;28;20045;-67
2022/11/27 01:47:13;;;;;;;15.23;7.60;;;5.60;99.90;;;;;;5027523;28;20376;-67
2022/11/27 01:49:44;;;;;;;24.57;8.00;;;5.60;99.90;;;;;;5020557;28;20049;-67
2022/11/27 01:52:31;;;;;;;26.00;8.52;;;5.60;99.90;;;;;;5013335;28;20384;-67
2022/11/27 01:55:05;;;;;;;17.90;7.47;;;5.60;99.90;;;;;;5031077;28;20037;-66
2022/11/27 01:57:39;;;;;;;20.08;7.78;;;5.60;99.90;;;;;;5028010;28;20041;-66
2022/11/27 02:00:08;;;;;;;22.40;8.40;;;5.50;99.90;;;;;;5020057;28;20126;-67
2022/11/27 02:02:33;;;;;;;19.27;8.13;;;5.50;99.90;;;;;;5032557;28;20403;-68
2022/11/27 02:04:59;;;;;;;18.17;7.93;;;5.50;99.90;;;;;;5027283;28;20036;-67
2022/11/27 02:07:25;;;;;;;20.92;8.38;;;5.50;99.90;;;;;;5026691;28;20037;-66
2022/11/27 02:09:50;;;;;;;21.08;9.25;;;5.50;99.90;;;;;;5031201;28;20468;-69
2022/11/27 02:12:27;;;;;;;20.75;7.55;;;5.50;99.90;;;;;;5031326;28;20034;-68
2022/11/27 02:15:47;;;;;;;19.98;8.88;;;5.40;99.90;;;;;;5024655;22;20046;-69
2022/11/27 02:18:44;;;;;;;16.63;8.27;;;5.40;99.90;;;;;;5002925;28;20038;-68
2022/11/27 02:21:17;;;;;;;17.63;8.07;;;5.40;99.90;;;;;;5024121;28;20058;-69
2022/11/27 02:24:11;;;;;;;22.17;7.72;;;5.40;99.90;;;;;;5032640;28;20499;-69
2022/11/27 02:26:58;;;;;;;18.48;7.60;;;5.40;99.90;;;;;;5019350;28;20060;-69
2022/11/27 02:29:27;;;;;;;19.20;7.43;;;5.40;99.90;;;;;;5011148;28;20041;-69
2022/11/27 02:32:23;;;;;;;19.33;7.90;;;5.40;99.90;;;;;;5020869;28;20034;-67
2022/11/27 02:34:59;;;;;;;18.95;8.27;;;5.40;99.90;;;;;;5010798;28;20455;-66
2022/11/27 02:37:46;;;;;;;19.58;7.65;;;5.30;99.90;;;;;;5010775;28;20048;-65
2022/11/27 02:40:28;;;;;;;19.33;7.80;;;5.30;99.90;;;;;;5024895;28;20487;-65
2022/11/27 02:43:06;;;;;;;17.45;7.55;;;5.40;99.90;;;;;;5032098;28;20038;-65
2022/11/27 02:45:40;;;;;;;20.27;8.00;;;5.40;99.90;;;;;;5032424;28;20113;-66
2022/11/27 02:48:08;;;;;;;19.13;7.72;;;5.30;99.90;;;;;;5023913;28;20038;-65
2022/11/27 02:50:37;;;;;;;16.30;7.32;;;5.40;99.90;;;;;;5020683;28;20037;-64
2022/11/27 02:53:08;;;;;;;15.55;7.85;;;5.40;99.90;;;;;;5011045;28;20041;-65
2022/11/27 02:55:36;;;;;;;22.42;7.57;;;5.40;99.90;;;;;;5008387;28;20061;-64
2022/11/27 02:58:06;;;;;;;21.02;7.38;;;5.40;99.90;;;;;;5011058;28;20041;-65
2022/11/27 03:00:34;;;;;;;19.58;7.43;;;5.40;99.90;;;;;;5010852;28;20073;-65
2022/11/27 03:03:04;;;;;;;22.17;7.07;;;5.40;99.90;;;;;;5015138;28;20132;-64
2022/11/27 03:05:36;;;;;;;20.63;7.68;;;5.30;99.90;;;;;;5018699;28;20069;-65
2022/11/27 03:08:29;;;;;;;14.80;6.90;;;5.30;99.90;;;;;;5015042;28;20045;-64
2022/11/27 03:11:07;;;;;;;21.20;7.63;;;5.40;99.90;;;;;;5013592;28;20037;-64
2022/11/27 03:13:38;;;;;;;16.85;6.60;;;5.40;99.90;;;;;;5028737;28;20091;-65
2022/11/27 03:16:13;;;;;;;19.30;6.93;;;5.40;99.90;;;;;;5014358;28;20042;-64
2022/11/27 03:18:58;;;;;;;18.23;6.70;;;5.40;99.90;;;;;;5013612;28;20038;-64
2022/11/27 03:21:41;;;;;;;13.85;6.15;;;5.50;99.90;;;;;;5019883;28;20044;-64
2022/11/27 03:24:08;;;;;;;16.70;6.85;;;5.50;99.90;;;;;;5014145;28;20053;-65
2022/11/27 03:26:34;;;;;;;25.38;6.40;;;5.50;99.90;;;;;;5014807;28;20081;-64
2022/11/27 03:29:03;;;;;;;20.42;7.35;;;5.50;99.90;;;;;;5017761;28;20403;-64
2022/11/27 03:31:30;;;;;;;14.98;6.10;;;5.50;99.90;;;;;;5015696;28;20117;-65
2022/11/27 03:33:56;;;;;;;16.50;6.38;;;5.50;99.90;;;;;;5013721;28;20052;-65
2022/11/27 03:36:22;;;;;;;14.75;6.25;;;5.60;99.90;;;;;;5014947;28;20029;-65
2022/11/27 03:38:50;;;;;;;19.75;6.60;;;5.50;99.90;;;;;;5020719;28;20034;-66
2022/11/27 03:41:41;;;;;;;20.30;6.63;;;5.50;99.90;;;;;;5029913;28;20041;-65
2022/11/27 03:44:15;;;;;;;13.48;6.35;;;5.50;99.90;;;;;;5012768;28;20045;-66
2022/11/27 03:47:02;;;;;;;17.65;6.75;;;5.50;99.90;;;;;;5023294;28;20038;-65
2022/11/27 03:49:51;;;;;;;17.58;6.10;;;5.50;99.90;;;;;;5014179;28;20451;-65
2022/11/27 03:52:25;;;;;;;18.00;6.57;;;5.60;99.90;;;;;;5014086;28;20037;-65
2022/11/27 03:55:09;;;;;;;13.68;6.20;;;5.60;99.90;;;;;;5016579;28;20029;-65
2022/11/27 03:57:42;;;;;;;18.05;5.78;;;5.60;99.90;;;;;;5017847;28;20488;-64
2022/11/27 04:00:09;;;;;;;20.45;6.15;;;5.70;99.90;;;;;;5014021;28;20125;-64
2022/11/27 04:02:41;;;;;;;11.82;5.32;;;5.70;99.90;;;;;;5024368;28;20048;-65
2022/11/27 04:05:07;;;;;;;16.42;5.95;;;5.70;99.90;;;;;;5018618;28;20085;-65
2022/11/27 04:07:33;;;;;;;16.92;5.68;;;5.80;99.90;;;;;;5012893;28;20490;-65
2022/11/27 04:09:58;;;;;;;11.82;5.38;;;5.80;99.90;;;;;;5013967;28;20034;-65
2022/11/27 04:12:24;;;;;;;13.48;6.03;;;5.80;99.90;;;;;;5019236;28;20038;-65
2022/11/27 04:14:50;;;;;;;12.95;5.80;;;5.80;99.90;;;;;;5021058;28;20045;-65
2022/11/27 04:17:15;;;;;;;15.60;5.70;;;5.90;99.90;;;;;;5011383;28;20095;-64
2022/11/27 04:19:41;;;;;;;14.18;5.65;;;5.90;99.90;;;;;;5020918;28;20049;-65
2022/11/27 04:22:06;;;;;;;16.13;5.72;;;5.90;99.90;;;;;;5012995;28;20396;-67
2022/11/27 04:24:32;;;;;;;11.00;5.05;;;5.90;99.90;;;;;;5013695;28;20038;-65
2022/11/27 04:26:57;;;;;;;17.77;5.80;;;5.90;99.90;;;;;;5019938;28;20026;-64
2022/11/27 04:29:23;;;;;;;12.75;5.53;;;5.90;99.90;;;;;;5024363;28;20053;-66
2022/11/27 04:31:48;;;;;;;13.93;5.65;;;5.90;99.90;;;;;;5011851;28;20038;-65
2022/11/27 04:34:14;;;;;;;16.20;5.57;;;5.90;99.90;;;;;;5012977;28;20045;-65
2022/11/27 04:36:41;;;;;;;12.15;5.00;;;5.90;99.90;;;;;;5022115;28;20128;-64
2022/11/27 04:39:06;;;;;;;17.30;5.72;;;5.90;99.90;;;;;;5014552;28;20122;-66
2022/11/27 04:41:32;;;;;;;14.50;5.20;;;5.90;99.90;;;;;;5022140;28;20045;-67
2022/11/27 04:43:57;;;;;;;16.35;4.88;;;5.90;99.90;;;;;;5013360;28;20073;-66
2022/11/27 04:46:23;;;;;;;13.25;5.80;;;5.90;99.90;;;;;;5013798;28;20041;-65
2022/11/27 04:48:48;;;;;;;11.38;5.30;;;5.90;99.90;;;;;;5022242;28;20042;-64
2022/11/27 04:51:14;;;;;;;12.27;5.57;;;5.90;99.90;;;;;;5014724;28;20121;-67
2022/11/27 04:53:41;;;;;;;14.63;5.35;;;5.90;99.90;;;;;;5027066;28;20053;-64
2022/11/27 04:56:06;;;;;;;14.55;5.28;;;5.90;99.90;;;;;;5012165;28;20045;-64
2022/11/27 04:58:32;;;;;;;14.05;5.50;;;5.90;99.90;;;;;;5011722;28;20042;-64
2022/11/27 05:00:57;;;;;;;13.80;5.40;;;5.80;99.90;;;;;;5012388;28;20129;-64
2022/11/27 05:03:23;;;;;;;11.25;5.18;;;5.80;99.90;;;;;;5019579;28;20092;-65
2022/11/27 05:05:56;;;;;;;11.30;4.55;;;5.80;99.90;;;;;;5021536;28;20048;-65
2022/11/27 05:08:22;;;;;;;14.05;5.15;;;5.80;99.90;;;;;;5016274;28;20073;-66
2022/11/27 05:11:03;;;;;;;16.13;5.25;;;5.80;99.90;;;;;;5012930;28;20045;-64
2022/11/27 05:13:29;;;;;;;12.82;4.93;;;5.80;99.90;;;;;;5011393;28;20061;-66
2022/11/27 05:15:54;;;;;;;13.85;5.35;;;5.80;99.90;;;;;;5008998;28;20046;-65
2022/11/27 05:18:20;;;;;;;12.10;5.10;;;5.80;99.90;;;;;;5026043;28;20072;-66
2022/11/27 05:20:46;;;;;;;16.88;5.75;;;5.80;99.90;;;;;;5013189;28;20041;-66
2022/11/27 05:23:12;;;;;;;9.93;4.93;;;5.80;99.90;;;;;;5011182;28;20412;-66
2022/11/27 05:25:38;;;;;;;13.98;5.72;;;5.80;99.90;;;;;;5017192;28;20039;-65
2022/11/27 05:28:04;;;;;;;14.73;5.80;;;5.80;99.90;;;;;;5015623;28;20041;-66
2022/11/27 05:30:29;;;;;;;12.82;5.60;;;5.90;99.90;;;;;;5010232;28;20037;-64
2022/11/27 05:32:55;;;;;;;11.85;4.70;;;5.80;99.90;;;;;;5011846;28;20560;-66
2022/11/27 05:35:20;;;;;;;14.50;5.68;;;5.80;99.90;;;;;;5013405;28;20057;-66
2022/11/27 05:37:46;;;;;;;13.65;5.55;;;5.80;99.90;;;;;;5012667;28;20046;-66
2022/11/27 05:40:12;;;;;;;14.18;5.60;;;5.80;99.90;;;;;;5018052;28;20034;-66
2022/11/27 05:42:37;;;;;;;13.50;5.63;;;5.80;99.90;;;;;;5025465;28;20090;-66
2022/11/27 05:45:03;;;;;;;12.27;5.13;;;5.80;99.90;;;;;;5016629;28;20116;-64
2022/11/27 05:47:29;;;;;;;12.32;4.93;;;5.80;99.90;;;;;;5017481;28;20044;-65
2022/11/27 05:49:54;;;;;;;12.77;5.10;;;5.80;99.90;;;;;;5026243;28;20038;-64
2022/11/27 05:52:20;;;;;;;13.55;4.90;;;5.80;99.90;;;;;;5011804;28;20044;-67
2022/11/27 05:54:46;;;;;;;13.80;5.30;;;5.80;99.90;;;;;;5021775;28;20508;-67
2022/11/27 05:57:11;;;;;;;11.35;5.10;;;5.80;99.90;;;;;;5017232;28;20096;-66
2022/11/27 05:59:37;;;;;;;13.07;5.50;;;5.80;99.90;;;;;;5018340;28;20056;-67
2022/11/27 06:02:03;;;;;;;10.73;4.93;;;5.80;99.90;;;;;;5023352;28;20048;-67
2022/11/27 06:04:32;;;;;;;10.95;5.32;;;5.80;99.90;;;;;;5031459;28;20469;-68
2022/11/27 06:06:58;;;;;;;11.90;5.18;;;5.80;99.90;;;;;;5030108;28;20120;-67
2022/11/27 06:09:23;;;;;;;13.13;5.60;;;5.80;99.90;;;;;;5020645;28;20478;-66
2022/11/27 06:11:49;;;;;;;12.43;6.07;;;5.80;99.90;;;;;;5009921;28;20041;-66
2022/11/27 06:14:14;;;;;;;13.82;6.10;;;5.80;99.90;;;;;;5020832;28;20171;-67
2022/11/27 06:16:40;;;;;;;15.98;5.70;;;5.80;99.90;;;;;;5018769;28;20050;-65
2022/11/27 06:19:07;;;;;;;14.65;5.65;;;5.80;99.90;;;;;;5011537;28;20389;-66
2022/11/27 06:21:32;;;;;;;13.30;5.32;;;5.80;99.90;;;;;;5010026;28;20078;-65
2022/11/27 06:23:58;;;;;;;15.35;5.53;;;5.80;99.90;;;;;;5008024;28;20504;-65
2022/11/27 06:26:26;;;;;;;10.27;5.50;;;5.80;99.90;;;;;;5022262;28;20496;-66
2022/11/27 06:28:53;;;;;;;10.88;5.32;;;5.80;99.90;;;;;;5010121;28;20078;-66
2022/11/27 06:31:21;;;;;;;11.65;6.13;;;5.90;99.90;;;;;;5010555;28;20087;-70
2022/11/27 06:33:48;;;;;;;11.05;5.60;;;5.90;99.90;;;;;;5022315;28;20037;-68
2022/11/27 06:36:14;;;;;;;11.55;5.43;;;5.90;99.90;;;;;;5014531;28;20037;-68
2022/11/27 06:38:40;;;;;;;14.00;5.35;;;5.90;99.90;;;;;;5006916;28;20052;-68
2022/11/27 06:41:17;;;;;;;15.25;5.22;;;5.90;99.90;;;;;;5018348;28;20129;-68
2022/11/27 06:43:43;;;;;;;14.82;5.72;;;5.90;99.90;;;;;;5017506;28;20863;-68
2022/11/27 06:46:14;;;;;;;17.50;5.90;;;5.90;99.90;;;;;;5024784;28;20125;-67
2022/11/27 06:48:39;;;;;;;16.77;6.50;;;5.90;99.90;;;;;;5017099;28;20367;-67
2022/11/27 06:51:06;;;;;;;15.25;6.13;;;5.90;99.90;;;;;;5015124;28;20741;-66
2022/11/27 06:53:34;;;;;;;12.43;6.32;;;5.90;99.90;;;;;;5014987;28;20037;-67
2022/11/27 06:56:08;;;;;;;21.83;6.63;;;5.90;99.90;;;;;;5010988;28;20132;-66
2022/11/27 06:58:34;;;;;;;12.10;5.53;;;5.90;99.90;;;;;;5011847;28;20052;-67
2022/11/27 07:01:03;;;;;;;12.77;5.45;;;5.90;99.90;;;;;;4997668;28;20069;-68
2022/11/27 07:03:29;;;;;;;13.95;6.00;;;5.90;99.90;;;;;;5015335;28;20054;-67
2022/11/27 07:05:58;;;;;;;13.35;6.65;;;5.90;99.90;;;;;;5017715;28;20042;-67
2022/11/27 07:08:23;;;;;;;12.90;6.13;;;5.90;99.90;;;;;;5014955;28;20129;-67
2022/11/27 07:10:49;;;;;;;15.20;6.30;;;5.90;99.90;;;;;;5009678;28;20125;-67
2022/11/27 07:13:15;;;;;;;13.40;6.13;;;5.90;99.90;;;;;;5010488;28;20046;-66
2022/11/27 07:15:41;;;;;;;12.73;5.68;;;5.90;99.90;;;;;;5016588;28;20112;-68
2022/11/27 07:18:06;;;;;;;14.52;6.50;;;5.90;99.90;;;;;;5010944;28;20033;-67
2022/11/27 07:20:32;;;;;;;13.18;5.93;;;5.90;99.90;;;;;;5008300;28;20542;-66
2022/11/27 07:22:57;;;;;;;13.80;5.97;;;5.90;99.90;;;;;;5021309;28;20057;-66
2022/11/27 07:25:23;;;;;;;12.75;6.10;;;6.00;99.90;;;;;;5025193;28;20045;-68
2022/11/27 07:27:49;;;;;;;11.95;6.10;;;6.00;99.90;;;;;;5018138;28;20048;-68
2022/11/27 07:30:15;;;;;;;13.80;6.10;;;6.00;99.90;;;;;;5008067;28;20037;-68
2022/11/27 07:32:40;;;;;;;16.77;6.15;;;6.00;99.90;;;;;;5009298;28;20617;-69
2022/11/27 07:35:06;;;;;;;15.90;6.18;;;6.00;99.90;;;;;;5016638;28;20129;-69
2022/11/27 07:37:32;;;;;;;13.15;6.50;;;6.00;99.90;;;;;;5012133;28;20038;-68
2022/11/27 07:39:58;;;;;;;12.68;6.45;;;6.00;99.90;;;;;;5023193;28;20546;-68
2022/11/27 07:42:24;;;;;;;14.32;6.15;;;6.10;99.90;;;;;;5029844;28;20056;-69
2022/11/27 07:44:50;;;;;;;18.92;6.78;;;6.10;99.90;;;;;;5030654;28;20037;-68
2022/11/27 07:47:15;;;;;;;14.45;6.47;;;6.10;99.90;;;;;;5018297;28;20473;-69
2022/11/27 07:49:41;;;;;;;19.45;6.45;;;6.10;99.90;;;;;;5011904;28;20046;-68
2022/11/27 07:52:06;;;;;;;17.25;7.28;;;6.10;99.90;;;;;;5009083;28;20046;-67
2022/11/27 07:54:33;;;;;;;19.58;6.40;;;6.10;99.90;;;;;;5010040;28;20160;-68
2022/11/27 07:56:59;;;;;;;14.60;6.60;;;6.10;99.90;;;;;;5016678;28;20068;-68
2022/11/27 07:59:25;;;;;;;16.17;6.75;;;6.10;99.90;;;;;;5012143;28;20587;-70
2022/11/27 08:01:51;;;;;;;19.08;6.93;;;6.10;99.90;;;;;;5010319;28;20077;-68
2022/11/27 08:04:17;;;;;;;13.75;6.38;;;6.20;99.90;;;;;;5011521;28;20084;-68
2022/11/27 08:06:42;;;;;;;15.85;6.40;;;6.20;99.90;;;;;;5027185;28;20500;-68
2022/11/27 08:09:08;;;;;;;16.95;6.80;;;6.20;99.90;;;;;;5020105;28;20100;-68
2022/11/27 08:11:34;;;;;;;16.70;6.28;;;6.30;99.90;;;;;;5017585;28;20079;-68
2022/11/27 08:14:02;;;;;;;14.43;6.68;;;6.40;99.90;;;;;;5068547;22;20491;-68
2022/11/27 08:16:28;;;;;;;15.85;7.05;;;6.40;99.90;;;;;;5012667;28;20038;-67
2022/11/27 08:18:54;;;;;;;14.50;6.15;;;6.50;99.90;;;;;;5014047;28;20048;-67
2022/11/27 08:21:20;;;;;;;18.00;7.30;;;6.50;99.90;;;;;;5002226;28;20033;-66
2022/11/27 08:23:46;;;;;;;17.25;6.40;;;6.50;99.90;;;;;;5012429;28;20176;-67
2022/11/27 08:26:12;;;;;;;11.32;6.20;;;6.50;99.90;;;;;;5013596;28;20049;-67
2022/11/27 08:28:39;;;;;;;11.95;6.57;;;6.50;99.90;;;;;;5007955;28;20124;-67
2022/11/27 08:31:06;;;;;;;17.63;6.85;;;6.60;99.90;;;;;;5012680;28;20536;-67
2022/11/27 08:33:32;;;;;;;16.15;6.90;;;6.60;99.90;;;;;;5010794;28;20041;-67
2022/11/27 08:35:58;;;;;;;13.30;6.55;;;6.60;99.90;;;;;;5012849;28;20033;-67
2022/11/27 08:38:24;;;;;;;15.93;7.30;;;6.60;99.90;;;;;;5013369;28;20055;-67
2022/11/27 08:41:01;;;;;;;15.02;6.25;;;6.60;99.90;;;;;;5007120;28;20045;-67
2022/11/27 08:43:27;;;;;;;12.48;6.22;;;6.60;99.90;;;;;;5006272;28;20042;-68
2022/11/27 08:45:53;;;;;;;15.07;6.68;;;6.70;99.90;;;;;;5001287;28;20065;-66
2022/11/27 08:48:20;;;;;;;15.82;6.80;;;6.70;99.90;;;;;;5008420;28;20088;-67
2022/11/27 08:50:46;;;;;;;13.88;6.20;;;6.70;99.90;;;;;;5012371;28;20038;-67
2022/11/27 08:53:12;;;;;;;12.65;6.43;;;6.70;99.90;;;;;;5001882;28;20034;-67
2022/11/27 08:55:38;;;;;;;16.17;6.60;;;6.80;99.90;;;;;;5001783;28;20069;-67
2022/11/27 08:58:03;;;;;;;18.13;6.40;;;6.80;99.90;;;;;;4991890;28;20038;-67
2022/11/27 09:00:30;;;;;;;15.80;6.40;;;6.80;99.90;;;;;;5013282;28;20069;-66
2022/11/27 09:02:58;;;;;;;16.33;6.35;;;6.80;99.90;;;;;;4997990;28;20097;-67
2022/11/27 09:05:24;;;;;;;12.95;6.68;;;6.80;99.90;;;;;;5007889;28;20042;-67
2022/11/27 09:07:50;;;;;;;16.30;6.82;;;6.80;99.90;;;;;;4995435;28;20038;-66
2022/11/27 09:10:15;;;;;;;16.77;7.07;;;6.80;99.90;;;;;;5002497;28;20044;-66
2022/11/27 09:12:43;;;;;;;16.80;6.72;;;6.90;99.90;;;;;;5010742;28;20116;-66
2022/11/27 09:15:10;;;;;;;15.70;7.10;;;6.90;99.90;;;;;;5012775;28;20045;-66
2022/11/27 09:17:36;;;;;;;13.25;6.50;;;6.80;99.90;;;;;;5006229;28;20038;-66
2022/11/27 09:20:03;;;;;;;15.65;7.63;;;6.80;99.90;;;;;;5011454;28;20890;-67
2022/11/27 09:22:28;;;;;;;15.25;7.32;;;6.80;99.90;;;;;;4994865;28;20076;-67
2022/11/27 09:24:54;;;;;;;14.75;6.53;;;6.80;99.90;;;;;;5012824;28;20472;-67
2022/11/27 09:27:19;;;;;;;14.65;6.50;;;6.80;99.90;;;;;;4989790;28;20034;-67
2022/11/27 09:29:45;;;;;;;13.43;6.68;;;6.80;99.90;;;;;;5001987;28;20042;-67
2022/11/27 09:32:10;;;;;;;14.80;6.95;;;6.80;99.90;;;;;;4994232;28;20480;-68
2022/11/27 09:34:36;;;;;;;15.10;6.97;;;6.80;99.90;;;;;;5009096;28;20041;-67
2022/11/27 09:37:03;;;;;;;14.98;6.53;;;6.80;99.90;;;;;;5004354;28;20042;-67
2022/11/27 09:39:32;;;;;;;17.95;6.80;;;6.80;99.90;;;;;;5012285;28;20038;-67
2022/11/27 09:42:00;;;;;;;15.30;6.18;;;6.80;99.90;;;;;;5027931;28;20661;-67
2022/11/27 09:44:35;;;;;;;15.52;7.32;;;6.90;99.90;;;;;;5001504;28;20046;-67
2022/11/27 09:47:22;;;;;;;17.52;7.20;;;6.80;99.90;;;;;;5004142;28;20127;-67
2022/11/27 09:49:53;;;;;;;15.55;6.63;;;6.80;99.90;;;;;;4990715;28;20049;-67
2022/11/27 09:52:55;;;;;;;16.92;6.70;;;6.80;99.90;;;;;;4990966;28;20034;-67
2022/11/27 09:55:34;;;;;;;13.15;6.47;;;6.80;99.90;;;;;;5006702;28;20038;-67
2022/11/27 09:58:18;;;;;;;16.27;7.10;;;6.80;99.90;;;;;;4992704;28;20044;-67
2022/11/27 10:00:45;;;;;;;16.65;6.82;;;6.80;99.90;;;;;;5009632;28;20038;-67
2022/11/27 10:03:18;;;;;;;12.70;6.55;;;6.80;99.90;;;;;;5011517;28;20038;-66
2022/11/27 10:06:09;;;;;;;15.57;6.85;;;6.80;99.90;;;;;;5012322;28;20041;-67
2022/11/27 10:08:52;;;;;;;17.70;7.18;;;6.80;99.90;;;;;;5006152;28;20042;-67
2022/11/27 10:11:52;;;;;;;13.48;6.55;;;6.80;99.90;;;;;;5010612;28;20041;-67
2022/11/27 10:14:30;;;;;;;13.35;6.82;;;6.80;99.90;;;;;;4991092;28;20571;-67
2022/11/27 10:17:14;;;;;;;14.63;7.30;;;6.80;99.90;;;;;;4993656;28;20042;-67
2022/11/27 10:20:00;;;;;;;15.77;7.32;;;6.80;99.90;;;;;;4995260;28;20133;-67
2022/11/27 10:23:03;;;;;;;15.15;6.55;;;6.90;99.90;;;;;;5015344;28;20569;-67
2022/11/27 10:25:49;;;;;;;15.52;6.32;;;6.90;99.90;;;;;;5005281;28;20042;-67
2022/11/27 10:28:37;;;;;;;16.20;7.13;;;6.90;99.90;;;;;;5012719;28;20042;-67
2022/11/27 10:31:16;;;;;;;16.45;6.70;;;6.90;99.90;;;;;;4978410;28;20411;-67
2022/11/27 10:33:49;;;;;;;14.65;6.63;;;6.90;99.90;;;;;;4994962;28;20084;-66
2022/11/27 10:36:20;;;;;;;15.90;7.40;;;6.90;99.90;;;;;;5010633;28;20492;-67
2022/11/27 10:38:47;;;;;;;16.52;7.10;;;7.00;99.90;;;;;;4997653;28;20029;-66
2022/11/27 10:41:23;;;;;;;17.05;6.93;;;7.00;99.90;;;;;;5018689;28;20111;-68
2022/11/27 10:43:53;;;;;;;14.88;6.97;;;7.00;99.90;;;;;;4983359;28;20057;-67
2022/11/27 10:46:26;;;;;;;16.70;7.70;;;7.00;99.90;;;;;;5015491;28;20128;-66
2022/11/27 10:48:52;;;;;;;17.65;7.60;;;7.00;99.90;;;;;;4998108;28;20052;-66
2022/11/27 10:51:22;;;;;;;14.25;6.63;;;7.00;99.90;;;;;;5004933;28;20434;-67
2022/11/27 10:53:52;;;;;;;17.90;6.80;;;7.00;99.90;;;;;;5005436;28;20073;-67
2022/11/27 10:56:38;;;;;;;16.38;7.30;;;7.00;99.90;;;;;;5007342;28;20416;-67
2022/11/27 10:59:10;;;;;;;17.95;7.10;;;7.00;99.90;;;;;;5008761;28;20516;-67
2022/11/27 11:01:47;;;;;;;15.82;6.95;;;7.00;99.90;;;;;;5009043;28;20080;-67
2022/11/27 11:04:15;;;;;;;12.30;6.72;;;7.00;99.90;;;;;;4996908;28;20077;-67
2022/11/27 11:06:44;;;;;;;15.88;7.00;;;7.00;99.90;;;;;;4989349;28;20061;-66
2022/11/27 11:09:14;;;;;;;15.68;7.53;;;7.00;99.90;;;;;;5010087;28;20041;-68
2022/11/27 11:11:40;;;;;;;15.18;7.13;;;7.00;99.90;;;;;;5011677;28;20030;-68
2022/11/27 11:14:25;;;;;;;14.38;7.25;;;7.00;99.90;;;;;;5004519;28;20056;-68
2022/11/27 11:16:52;;;;;;;18.20;6.85;;;7.00;99.90;;;;;;5006752;28;20530;-67
2022/11/27 11:19:24;;;;;;;14.73;7.20;;;7.00;99.90;;;;;;5010391;28;20084;-69
2022/11/27 11:21:51;;;;;;;16.40;6.88;;;7.00;99.90;;;;;;5010842;28;20092;-68
2022/11/27 11:24:29;;;;;;;15.02;6.90;;;7.00;99.90;;;;;;5006604;28;20159;-69
2022/11/27 11:27:06;;;;;;;14.82;7.43;;;7.10;99.90;;;;;;5009608;28;20092;-68
2022/11/27 11:29:39;;;;;;;16.05;6.85;;;7.10;99.90;;;;;;4990911;28;20045;-68
2022/11/27 11:32:07;;;;;;;15.65;7.05;;;7.10;99.90;;;;;;5001307;28;20038;-69
2022/11/27 11:34:33;;;;;;;17.73;7.30;;;7.10;99.90;;;;;;5008897;28;20041;-67
2022/11/27 11:37:07;;;;;;;18.58;7.47;;;7.20;99.90;;;;;;5010425;28;20034;-68
2022/11/27 11:39:43;;;;;;;15.60;6.90;;;7.20;99.90;;;;;;5009344;28;20096;-68
2022/11/27 11:42:27;;;;;;;13.82;7.45;;;7.20;99.90;;;;;;4988591;28;20535;-68
2022/11/27 11:45:17;;;;;;;12.05;6.97;;;7.30;99.90;;;;;;4994777;28;20041;-69
2022/11/27 11:47:51;;;;;;;15.63;7.03;;;7.20;99.90;;;;;;5010712;28;20042;-68
2022/11/27 11:50:36;;;;;;;14.95;6.68;;;7.30;99.90;;;;;;5007610;28;20042;-69
2022/11/27 11:53:25;;;;;;;13.45;7.05;;;7.30;99.90;;;;;;5006047;28;20034;-68
2022/11/27 11:56:34;;;;;;;15.23;6.90;;;7.30;99.90;;;;;;5013716;28;20492;-67
2022/11/27 11:59:37;;;;;;;15.73;7.10;;;7.40;99.90;;;;;;4995216;28;20046;-67
2022/11/27 12:02:21;;;;;;;13.32;6.88;;;7.40;99.90;;;;;;4993017;28;20030;-67
2022/11/27 12:05:08;;;;;;;13.52;7.22;;;7.40;99.90;;;;;;4988535;28;20050;-67
2022/11/27 12:08:03;;;;;;;16.17;7.05;;;7.40;99.90;;;;;;5009447;28;20039;-69
2022/11/27 12:10:37;;;;;;;13.57;6.65;;;7.30;99.90;;;;;;5012040;28;20048;-68
2022/11/27 12:13:29;;;;;;;12.07;7.10;;;7.30;99.90;;;;;;5011418;28;20827;-66
2022/11/27 12:16:03;;;;;;;15.35;6.95;;;7.30;99.90;;;;;;5009394;28;20046;-69
2022/11/27 12:18:35;;;;;;;13.45;7.07;;;7.30;99.90;;;;;;4994661;28;20065;-68
2022/11/27 12:21:27;;;;;;;13.00;7.25;;;7.30;99.90;;;;;;5008663;28;20042;-67
2022/11/27 12:23:52;;;;;;;14.18;7.25;;;7.40;99.90;;;;;;5008230;28;20104;-68
2022/11/27 12:26:35;;;;;;;15.43;7.45;;;7.40;99.90;;;;;;5011605;28;20042;-68
2022/11/27 12:29:01;;;;;;;18.20;7.00;;;7.40;99.90;;;;;;5011297;28;20076;-72
2022/11/27 12:32:04;;;;;;;14.38;6.68;;;7.40;99.90;;;;;;4991042;28;20069;-68
2022/11/27 12:34:44;;;;;;;15.93;7.03;;;7.50;99.90;;;;;;4993451;28;20042;-69
2022/11/27 12:37:29;;;;;;;12.77;6.85;;;7.40;99.90;;;;;;4993755;28;20124;-70
2022/11/27 12:40:21;;;;;;;13.68;7.22;;;7.50;99.90;;;;;;4988081;28;20531;-69
2022/11/27 12:43:12;;;;;;;13.60;7.10;;;7.50;99.90;;;;;;4983246;28;20034;-69
2022/11/27 12:45:44;;;;;;;13.65;7.32;;;7.50;99.90;;;;;;5008268;28;20636;-68
2022/11/27 12:48:45;;;;;;;13.40;7.28;;;7.50;99.90;;;;;;4992784;28;20073;-69
2022/11/27 12:51:30;;;;;;;17.55;7.25;;;7.50;99.90;;;;;;4999164;28;20054;-70
2022/11/27 12:54:09;;;;;;;12.77;6.88;;;7.50;99.90;;;;;;5011069;28;20427;-68
2022/11/27 12:56:36;;;;;;;14.50;7.88;;;7.50;99.90;;;;;;4985753;28;20050;-68
2022/11/27 12:59:21;;;;;;;14.07;7.03;;;7.50;99.90;;;;;;5002509;28;20042;-68
2022/11/27 13:01:51;;;;;;;16.88;7.68;;;7.50;99.90;;;;;;4992398;28;20095;-67
2022/11/27 13:04:49;;;;;;;15.55;6.75;;;7.50;99.90;;;;;;4994906;28;20496;-68
2022/11/27 13:07:26;;;;;;;14.50;7.45;;;7.50;99.90;;;;;;4999104;28;20449;-67
2022/11/27 13:10:06;;;;;;;14.80;8.25;;;7.40;99.90;;;;;;5010367;28;20540;-67